createdAt,value
2022-12-06T00:01:29.048Z,2.93
2022-12-06T00:03:58.062Z,3.02
2022-12-06T00:06:27.826Z,2.90
2022-12-06T00:08:55.662Z,2.88
2022-12-06T00:11:24.938Z,2.87
2022-12-06T00:13:57.092Z,2.94
2022-12-06T00:16:24.472Z,2.81
2022-12-06T00:18:51.401Z,2.73
2022-12-06T00:21:28.343Z,2.70
2022-12-06T00:23:57.713Z,2.74
2022-12-06T00:26:25.531Z,2.72
2022-12-06T00:28:57.447Z,2.76
2022-12-06T00:31:26.285Z,2.82
2022-12-06T00:33:54.142Z,2.77
2022-12-06T00:36:23.437Z,2.88
2022-12-06T00:38:50.570Z,3.08
2022-12-06T00:41:19.897Z,3.02
2022-12-06T00:43:47.212Z,2.93
2022-12-06T00:46:17.812Z,2.87
2022-12-06T00:48:45.688Z,2.72
2022-12-06T00:51:13.011Z,2.66
2022-12-06T00:53:39.499Z,2.56
2022-12-06T00:56:06.237Z,2.53
2022-12-06T00:58:32.859Z,2.51
2022-12-06T01:01:16.060Z,2.46
2022-12-06T01:03:44.851Z,2.60
2022-12-06T01:06:14.423Z,2.62
2022-12-06T01:08:42.227Z,2.55
2022-12-06T01:11:09.407Z,2.53
2022-12-06T01:13:36.148Z,2.66
2022-12-06T01:16:24.542Z,2.80
2022-12-06T01:18:59.401Z,2.69
2022-12-06T01:21:26.500Z,2.83
2022-12-06T01:23:56.067Z,2.85
2022-12-06T01:26:26.777Z,2.87
2022-12-06T01:28:53.847Z,2.94
2022-12-06T01:31:20.942Z,2.92
2022-12-06T01:33:47.621Z,2.92
2022-12-06T01:36:32.230Z,2.87
2022-12-06T01:39:01.101Z,2.91
2022-12-06T01:41:28.146Z,2.89
2022-12-06T01:43:56.008Z,2.82
2022-12-06T01:46:34.358Z,2.87
2022-12-06T01:49:12.980Z,2.95
2022-12-06T01:52:01.609Z,3.00
2022-12-06T01:54:29.474Z,3.00
2022-12-06T01:56:57.921Z,3.01
2022-12-06T01:59:25.997Z,2.97
2022-12-06T02:01:53.590Z,2.94
2022-12-06T02:04:22.206Z,2.93
2022-12-06T02:06:50.332Z,2.86
2022-12-06T02:09:18.183Z,2.87
2022-12-06T02:11:44.651Z,2.90
2022-12-06T02:14:15.119Z,2.91
2022-12-06T02:16:41.537Z,3.02
2022-12-06T02:19:25.428Z,2.74
2022-12-06T02:21:59.996Z,2.69
2022-12-06T02:24:52.414Z,2.68
2022-12-06T02:27:35.248Z,2.73
2022-12-06T02:30:34.562Z,2.67
2022-12-06T02:33:06.993Z,2.68
2022-12-06T02:35:38.976Z,2.56
2022-12-06T02:38:28.886Z,2.42
2022-12-06T02:41:01.533Z,2.52
2022-12-06T02:43:42.815Z,2.47
2022-12-06T02:46:13.188Z,2.35
2022-12-06T02:48:41.831Z,2.47
2022-12-06T02:51:15.498Z,2.51
2022-12-06T02:53:47.066Z,2.44
2022-12-06T02:56:16.598Z,2.51
2022-12-06T02:58:43.077Z,2.32
2022-12-06T03:01:20.123Z,2.34
2022-12-06T03:03:49.498Z,2.26
2022-12-06T03:06:40.823Z,2.15
2022-12-06T03:09:29.142Z,2.29
2022-12-06T03:12:14.371Z,2.21
2022-12-06T03:14:52.337Z,2.07
2022-12-06T03:17:33.792Z,2.14
2022-12-06T03:20:08.509Z,2.02
2022-12-06T03:22:40.283Z,1.95
2022-12-06T03:25:09.000Z,1.95
2022-12-06T03:27:36.420Z,2.08
2022-12-06T03:30:08.418Z,2.13
2022-12-06T03:32:37.827Z,2.16
2022-12-06T03:35:08.579Z,2.16
2022-12-06T03:37:37.871Z,2.22
2022-12-06T03:40:10.142Z,2.07
2022-12-06T03:42:37.217Z,2.05
2022-12-06T03:45:04.901Z,1.99
2022-12-06T03:48:00.938Z,1.97
2022-12-06T03:50:35.968Z,2.05
2022-12-06T03:53:02.749Z,2.04
2022-12-06T03:55:29.345Z,2.12
2022-12-06T03:57:55.786Z,2.08
2022-12-06T04:00:22.318Z,2.13
2022-12-06T04:02:48.841Z,2.25
2022-12-06T04:05:15.409Z,2.15
2022-12-06T04:07:41.896Z,2.14
2022-12-06T04:10:08.777Z,2.22
2022-12-06T04:12:54.496Z,2.14
2022-12-06T04:15:22.403Z,2.10
2022-12-06T04:18:07.748Z,2.15
2022-12-06T04:20:54.197Z,2.14
2022-12-06T04:23:20.937Z,2.18
2022-12-06T04:25:47.533Z,2.17
2022-12-06T04:28:33.209Z,2.09
2022-12-06T04:31:22.135Z,2.12
2022-12-06T04:34:07.707Z,2.17
2022-12-06T04:36:53.150Z,2.11
2022-12-06T04:39:21.050Z,2.02
2022-12-06T04:42:06.454Z,2.11
2022-12-06T04:44:32.920Z,2.00
2022-12-06T04:47:00.130Z,1.99
2022-12-06T04:49:26.838Z,1.89
2022-12-06T04:51:54.685Z,2.09
2022-12-06T04:54:21.801Z,2.17
2022-12-06T04:56:48.419Z,2.26
2022-12-06T04:59:15.068Z,2.14
2022-12-06T05:01:41.516Z,2.17
2022-12-06T05:04:08.050Z,2.18
2022-12-06T05:06:34.602Z,2.16
2022-12-06T05:09:01.181Z,2.18
2022-12-06T05:11:27.685Z,2.22
2022-12-06T05:13:54.083Z,2.26
2022-12-06T05:16:20.591Z,2.28
2022-12-06T05:18:47.060Z,2.36
2022-12-06T05:21:16.635Z,2.32
2022-12-06T05:23:43.356Z,2.35
2022-12-06T05:26:15.410Z,2.31
2022-12-06T05:28:42.674Z,2.23
2022-12-06T05:31:09.735Z,2.20
2022-12-06T05:33:36.606Z,2.24
2022-12-06T05:36:10.853Z,2.36
2022-12-06T05:38:37.564Z,2.24
2022-12-06T05:41:04.546Z,2.25
2022-12-06T05:43:31.726Z,2.18
2022-12-06T05:45:58.563Z,2.28
2022-12-06T05:48:25.325Z,2.30
2022-12-06T05:50:51.917Z,2.47
2022-12-06T05:53:18.468Z,2.29
2022-12-06T05:55:44.909Z,2.31
2022-12-06T05:58:12.220Z,2.22
2022-12-06T06:00:39.351Z,2.25
2022-12-06T06:03:06.620Z,2.25
2022-12-06T06:05:34.178Z,2.17
2022-12-06T06:08:00.646Z,2.17
2022-12-06T06:10:27.101Z,2.19
2022-12-06T06:12:53.534Z,2.24
2022-12-06T06:15:20.070Z,2.20
2022-12-06T06:17:46.522Z,2.22
2022-12-06T06:20:13.917Z,2.30
2022-12-06T06:22:42.058Z,2.44
2022-12-06T06:25:09.296Z,2.36
2022-12-06T06:27:37.738Z,2.33
2022-12-06T06:30:10.664Z,2.27
2022-12-06T06:32:37.536Z,2.36
2022-12-06T06:35:04.942Z,2.33
2022-12-06T06:37:32.368Z,2.27
2022-12-06T06:39:59.715Z,2.20
2022-12-06T06:42:26.752Z,2.31
2022-12-06T06:44:56.351Z,2.32
2022-12-06T06:47:23.450Z,2.23
2022-12-06T06:49:49.922Z,2.21
2022-12-06T06:52:16.446Z,2.04
2022-12-06T06:54:42.969Z,2.04
2022-12-06T06:57:15.831Z,1.97
2022-12-06T06:59:44.421Z,2.03
2022-12-06T07:02:13.688Z,1.99
2022-12-06T07:04:40.713Z,2.07
2022-12-06T07:07:07.187Z,1.99
2022-12-06T07:09:34.131Z,2.10
2022-12-06T07:12:00.695Z,2.06
2022-12-06T07:14:27.118Z,2.04
2022-12-06T07:16:53.595Z,1.94
2022-12-06T07:19:20.102Z,1.91
2022-12-06T07:21:46.614Z,1.91
2022-12-06T07:24:13.007Z,1.96
2022-12-06T07:26:39.457Z,1.96
2022-12-06T07:29:05.931Z,1.98
2022-12-06T07:31:33.653Z,2.03
2022-12-06T07:34:01.653Z,2.05
2022-12-06T07:36:30.730Z,2.15
2022-12-06T07:38:58.605Z,2.15
2022-12-06T07:41:45.848Z,2.17
2022-12-06T07:44:32.667Z,2.60
2022-12-06T07:46:59.181Z,3.02
2022-12-06T07:49:25.692Z,2.73
2022-12-06T07:51:53.950Z,2.49
2022-12-06T07:54:20.743Z,2.53
2022-12-06T07:56:47.142Z,2.34
2022-12-06T07:59:13.555Z,2.27
2022-12-06T08:01:40.474Z,2.46
2022-12-06T08:04:07.904Z,2.54
2022-12-06T08:06:34.835Z,2.68
2022-12-06T08:09:01.382Z,2.66
2022-12-06T08:11:28.775Z,2.76
2022-12-06T08:13:55.425Z,2.84
2022-12-06T08:16:22.059Z,2.87
2022-12-06T08:18:48.633Z,2.91
2022-12-06T08:21:16.544Z,3.04
2022-12-06T08:23:42.980Z,3.07
2022-12-06T08:26:13.765Z,3.22
2022-12-06T08:28:40.568Z,3.60
2022-12-06T08:31:08.960Z,4.00
2022-12-06T08:33:35.718Z,4.13
2022-12-06T08:36:08.900Z,4.32
2022-12-06T08:38:38.031Z,4.66
2022-12-06T08:41:05.882Z,4.96
2022-12-06T08:43:32.581Z,5.40
2022-12-06T08:45:59.157Z,5.93
2022-12-06T08:48:26.846Z,6.31
2022-12-06T08:50:53.252Z,6.77
2022-12-06T08:53:19.692Z,7.19
2022-12-06T08:56:01.981Z,7.96
2022-12-06T08:58:29.063Z,8.34
2022-12-06T09:00:55.472Z,8.73
2022-12-06T09:03:22.035Z,9.25
2022-12-06T09:05:48.522Z,9.43
2022-12-06T09:08:15.260Z,9.74
2022-12-06T09:10:43.526Z,10.12
2022-12-06T09:13:10.195Z,10.60
2022-12-06T09:15:38.675Z,11.08
2022-12-06T09:18:05.265Z,11.29
2022-12-06T09:20:31.762Z,11.69
2022-12-06T09:22:58.158Z,11.73
2022-12-06T09:25:25.048Z,11.51
2022-12-06T09:27:53.062Z,11.84
2022-12-06T09:30:19.634Z,11.88
2022-12-06T09:32:48.200Z,11.81
2022-12-06T09:35:16.006Z,12.21
2022-12-06T09:37:43.911Z,12.53
2022-12-06T09:40:18.585Z,12.56
2022-12-06T09:43:01.196Z,12.51
2022-12-06T09:45:48.706Z,11.72
2022-12-06T09:48:43.041Z,12.27
2022-12-06T09:51:52.286Z,12.37
2022-12-06T09:54:33.854Z,11.96
2022-12-06T09:57:16.805Z,11.68
2022-12-06T10:00:02.242Z,12.13
2022-12-06T10:02:28.898Z,12.84
2022-12-06T10:05:19.922Z,12.77
2022-12-06T10:08:01.789Z,12.36
2022-12-06T10:10:38.470Z,12.66
2022-12-06T10:13:14.042Z,12.94
2022-12-06T10:16:00.809Z,13.23
2022-12-06T10:18:27.247Z,13.34
2022-12-06T10:21:31.065Z,12.88
2022-12-06T10:24:14.669Z,12.83
2022-12-06T10:26:51.140Z,12.50
2022-12-06T10:29:35.175Z,13.15
2022-12-06T10:32:16.548Z,13.63
2022-12-06T10:34:57.661Z,13.68
2022-12-06T10:37:47.769Z,13.62
2022-12-06T10:40:22.981Z,13.46
2022-12-06T10:42:59.116Z,13.38
2022-12-06T10:45:53.258Z,13.39
2022-12-06T10:48:27.776Z,13.65
2022-12-06T10:51:18.704Z,13.16
2022-12-06T10:53:51.891Z,13.64
2022-12-06T10:56:27.801Z,13.79
2022-12-06T10:59:03.378Z,13.64
2022-12-06T11:01:38.684Z,13.85
2022-12-06T11:04:22.455Z,14.28
2022-12-06T11:06:55.286Z,14.14
2022-12-06T11:09:44.142Z,13.98
2022-12-06T11:12:29.413Z,13.55
2022-12-06T11:15:22.489Z,13.42
2022-12-06T11:18:00.891Z,13.65
2022-12-06T11:21:11.001Z,14.03
2022-12-06T11:23:50.606Z,14.19
2022-12-06T11:26:47.087Z,14.02
2022-12-06T11:29:15.862Z,13.95
2022-12-06T11:31:59.688Z,14.36
2022-12-06T11:34:43.734Z,14.43
2022-12-06T11:37:22.948Z,14.53
2022-12-06T11:40:06.109Z,14.61
2022-12-06T11:42:33.117Z,14.33
2022-12-06T11:45:06.829Z,13.88
2022-12-06T11:47:33.582Z,13.65
2022-12-06T11:50:05.857Z,13.62
2022-12-06T11:52:44.170Z,13.40
2022-12-06T11:55:21.071Z,13.37
2022-12-06T11:57:55.943Z,13.25
2022-12-06T12:00:25.031Z,13.54
2022-12-06T12:02:54.544Z,13.61
2022-12-06T12:05:26.604Z,13.69
2022-12-06T12:08:06.415Z,13.69
2022-12-06T12:10:35.334Z,14.31
2022-12-06T12:13:29.972Z,14.34
2022-12-06T12:16:00.768Z,13.91
2022-12-06T12:18:55.371Z,13.96
2022-12-06T12:21:33.306Z,13.87
2022-12-06T12:24:00.472Z,14.26
2022-12-06T12:26:40.481Z,13.97
2022-12-06T12:29:19.164Z,13.91
2022-12-06T12:31:59.697Z,14.16
2022-12-06T12:34:30.893Z,14.00
2022-12-06T12:37:00.801Z,13.89
2022-12-06T12:39:44.993Z,13.39
2022-12-06T12:42:28.171Z,12.76
2022-12-06T12:44:59.753Z,12.47
2022-12-06T12:47:27.089Z,12.43
2022-12-06T12:50:18.230Z,12.39
2022-12-06T12:52:44.686Z,12.55
2022-12-06T12:55:24.655Z,12.36
2022-12-06T12:58:00.500Z,12.41
2022-12-06T13:00:38.720Z,12.31
2022-12-06T13:03:49.413Z,12.37
2022-12-06T13:06:14.380Z,12.00
2022-12-06T13:08:40.900Z,12.22
2022-12-06T13:11:08.560Z,12.34
2022-12-06T13:13:45.644Z,12.43
2022-12-06T13:16:15.979Z,12.36
2022-12-06T13:18:46.361Z,12.20
2022-12-06T13:21:36.098Z,12.49
2022-12-06T13:24:13.412Z,12.13
2022-12-06T13:26:45.774Z,11.88
2022-12-06T13:29:31.468Z,11.61
2022-12-06T13:32:00.963Z,11.72
2022-12-06T13:34:46.474Z,11.29
2022-12-06T13:37:53.122Z,10.87
2022-12-06T13:40:44.877Z,10.61
2022-12-06T13:43:23.453Z,9.82
2022-12-06T13:46:08.852Z,10.02
2022-12-06T13:48:37.346Z,9.89
2022-12-06T13:51:35.383Z,9.77
2022-12-06T13:54:05.198Z,9.71
2022-12-06T13:56:34.421Z,9.56
2022-12-06T13:59:00.852Z,9.42
2022-12-06T14:01:42.662Z,9.19
2022-12-06T14:06:52.257Z,9.10
2022-12-06T14:09:18.841Z,8.87
2022-12-06T14:11:46.184Z,8.62
2022-12-06T14:14:21.890Z,8.45
2022-12-06T14:16:51.657Z,8.45
2022-12-06T14:19:22.966Z,8.36
2022-12-06T14:21:57.918Z,8.29
2022-12-06T14:24:25.227Z,8.39
2022-12-06T14:26:51.643Z,8.28
2022-12-06T14:29:23.145Z,8.28
2022-12-06T14:31:51.651Z,8.21
2022-12-06T14:34:30.032Z,8.16
2022-12-06T14:36:58.444Z,8.17
2022-12-06T14:39:28.221Z,8.09
2022-12-06T14:42:16.553Z,7.89
2022-12-06T14:44:51.054Z,7.91
2022-12-06T14:47:19.454Z,7.89
2022-12-06T14:50:10.196Z,7.98
2022-12-06T14:52:36.749Z,7.93
2022-12-06T14:55:12.262Z,7.93
2022-12-06T14:57:49.287Z,7.83
2022-12-06T15:00:26.929Z,7.76
2022-12-06T15:03:10.358Z,7.72
2022-12-06T15:05:45.433Z,7.73
2022-12-06T15:08:27.309Z,7.61
2022-12-06T15:11:33.921Z,7.49
2022-12-06T15:14:17.207Z,7.31
2022-12-06T15:16:59.465Z,7.41
2022-12-06T15:19:26.487Z,7.40
2022-12-06T15:21:54.035Z,7.50
2022-12-06T15:24:22.901Z,7.38
2022-12-06T15:26:49.746Z,7.36
2022-12-06T15:29:17.178Z,7.04
2022-12-06T15:31:49.681Z,6.94
2022-12-06T15:34:23.598Z,6.78
2022-12-06T15:36:59.537Z,6.92
2022-12-06T15:39:37.502Z,6.98
2022-12-06T15:42:06.306Z,6.97
2022-12-06T15:44:34.526Z,6.98
2022-12-06T15:47:01.017Z,6.88
2022-12-06T15:49:27.500Z,6.91
2022-12-06T15:51:54.170Z,6.95
2022-12-06T15:54:23.388Z,6.91
2022-12-06T15:56:51.379Z,6.86
2022-12-06T15:59:18.941Z,6.86
2022-12-06T16:01:48.021Z,6.88
2022-12-06T16:04:16.710Z,6.88
2022-12-06T16:06:43.884Z,6.82
2022-12-06T16:09:11.188Z,6.84
2022-12-06T16:11:37.959Z,6.99
2022-12-06T16:14:04.872Z,6.88
2022-12-06T16:16:31.442Z,6.85
2022-12-06T16:18:58.310Z,6.80
2022-12-06T16:21:28.135Z,6.86
2022-12-06T16:24:17.445Z,6.80
2022-12-06T16:26:45.629Z,6.80
2022-12-06T16:29:24.964Z,6.77
2022-12-06T16:31:52.963Z,6.82
2022-12-06T16:34:19.942Z,6.70
2022-12-06T16:36:57.161Z,6.80
2022-12-06T16:39:24.699Z,6.86
2022-12-06T16:41:51.220Z,6.80
2022-12-06T16:44:17.740Z,6.77
2022-12-06T16:46:45.700Z,6.76
2022-12-06T16:52:05.861Z,6.76
2022-12-06T16:54:32.343Z,6.68
2022-12-06T16:56:58.823Z,6.59
2022-12-06T16:59:25.241Z,6.59
2022-12-06T17:01:53.919Z,6.64
2022-12-06T17:04:20.758Z,6.60
2022-12-06T17:06:47.728Z,6.60
2022-12-06T17:09:15.035Z,6.57
2022-12-06T17:12:00.551Z,6.58
2022-12-06T17:14:27.420Z,6.55
2022-12-06T17:16:54.963Z,6.91
2022-12-06T17:19:27.895Z,6.90
2022-12-06T17:21:54.528Z,6.69
2022-12-06T17:24:21.669Z,6.60
2022-12-06T17:26:48.600Z,6.60
2022-12-06T17:29:15.190Z,6.51
2022-12-06T17:31:42.634Z,6.56
2022-12-06T17:34:12.533Z,6.58
2022-12-06T17:36:39.353Z,6.52
2022-12-06T17:39:07.067Z,6.44
2022-12-06T17:41:52.358Z,6.48
2022-12-06T17:44:19.686Z,6.39
2022-12-06T17:46:46.840Z,6.50
2022-12-06T17:49:17.501Z,6.50
2022-12-06T17:51:44.307Z,6.43
2022-12-06T17:54:12.422Z,6.42
2022-12-06T17:56:42.082Z,6.44
2022-12-06T17:59:11.310Z,6.46
2022-12-06T18:02:12.940Z,6.98
2022-12-06T18:04:25.535Z,7.22
2022-12-06T18:06:51.975Z,7.00
2022-12-06T18:09:18.537Z,6.83
2022-12-06T18:11:45.052Z,6.72
2022-12-06T18:14:12.751Z,6.54
2022-12-06T18:16:41.473Z,6.57
2022-12-06T18:19:12.529Z,6.53
2022-12-06T18:21:39.780Z,6.52
2022-12-06T18:24:26.785Z,6.45
2022-12-06T18:26:54.542Z,6.46
2022-12-06T18:29:23.118Z,6.35
2022-12-06T18:31:49.963Z,6.25
2022-12-06T18:34:17.232Z,6.28
2022-12-06T18:36:43.732Z,6.29
2022-12-06T18:39:16.602Z,6.25
2022-12-06T18:41:44.412Z,6.18
2022-12-06T18:44:11.818Z,6.19
2022-12-06T18:46:39.316Z,6.15
2022-12-06T18:49:07.034Z,6.09
2022-12-06T18:51:35.812Z,6.15
2022-12-06T18:54:04.929Z,6.32
2022-12-06T18:56:33.140Z,6.86
2022-12-06T18:59:01.611Z,6.64
2022-12-06T19:01:30.897Z,6.36
2022-12-06T19:04:00.707Z,6.28
2022-12-06T19:06:30.114Z,6.29
2022-12-06T19:08:59.844Z,6.21
2022-12-06T19:11:26.526Z,6.16
2022-12-06T19:13:57.824Z,6.24
2022-12-06T19:16:27.615Z,6.08
2022-12-06T19:18:56.130Z,6.08
2022-12-06T19:21:23.274Z,6.08
2022-12-06T19:23:52.968Z,6.05
2022-12-06T19:26:19.456Z,6.09
2022-12-06T19:28:45.950Z,6.06
2022-12-06T19:31:13.812Z,6.06
2022-12-06T19:33:45.537Z,6.10
2022-12-06T19:36:18.921Z,6.13
2022-12-06T19:38:45.714Z,6.16
2022-12-06T19:41:17.890Z,6.14
2022-12-06T19:44:02.860Z,6.20
2022-12-06T19:46:30.696Z,6.17
2022-12-06T19:48:59.841Z,6.08
2022-12-06T19:51:28.911Z,6.13
2022-12-06T19:53:57.919Z,6.11
2022-12-06T19:56:25.781Z,6.17
2022-12-06T19:58:52.825Z,6.35
2022-12-06T20:01:21.887Z,6.32
2022-12-06T20:03:48.405Z,6.22
2022-12-06T20:06:18.300Z,6.18
2022-12-06T20:08:45.726Z,6.10
2022-12-06T20:11:33.486Z,6.08
2022-12-06T20:14:04.744Z,6.14
2022-12-06T20:16:31.233Z,6.12
2022-12-06T20:18:57.836Z,6.07
2022-12-06T20:21:24.763Z,5.95
2022-12-06T20:23:51.592Z,5.97
2022-12-06T20:26:18.153Z,6.02
2022-12-06T20:28:46.192Z,6.05
2022-12-06T20:31:17.054Z,6.10
2022-12-06T20:33:43.916Z,6.02
2022-12-06T20:36:11.176Z,6.02
2022-12-06T20:38:38.075Z,6.04
2022-12-06T20:41:25.342Z,6.01
2022-12-06T20:43:52.522Z,6.03
2022-12-06T20:46:26.382Z,6.07
2022-12-06T20:48:54.106Z,6.07
2022-12-06T20:51:26.028Z,6.00
2022-12-06T20:53:54.623Z,6.10
2022-12-06T20:56:22.524Z,6.07
2022-12-06T20:58:52.250Z,6.07
2022-12-06T21:01:22.336Z,6.07
2022-12-06T21:03:51.086Z,6.03
2022-12-06T21:06:19.819Z,5.96
2022-12-06T21:08:46.884Z,5.99
2022-12-06T21:11:23.137Z,5.97
2022-12-06T21:13:55.887Z,5.93
2022-12-06T21:16:31.689Z,5.89
2022-12-06T21:19:01.257Z,5.96
2022-12-06T21:21:34.552Z,6.06
2022-12-06T21:24:01.773Z,6.02
2022-12-06T21:26:29.847Z,5.96
2022-12-06T21:28:56.353Z,5.88
2022-12-06T21:31:31.342Z,5.93
2022-12-06T21:33:58.235Z,5.88
2022-12-06T21:36:25.554Z,5.94
2022-12-06T21:38:52.668Z,5.98
2022-12-06T21:41:19.267Z,5.90
2022-12-06T21:43:45.830Z,5.91
2022-12-06T21:46:17.958Z,5.94
2022-12-06T21:48:45.246Z,5.92
2022-12-06T21:51:14.381Z,5.87
2022-12-06T21:53:41.130Z,5.83
2022-12-06T21:56:14.862Z,5.84
2022-12-06T21:58:41.361Z,5.82
2022-12-06T22:01:10.690Z,5.76
2022-12-06T22:03:37.568Z,5.68
2022-12-06T22:06:08.732Z,5.64
2022-12-06T22:08:35.640Z,5.64
2022-12-06T22:11:10.332Z,5.58
2022-12-06T22:13:37.490Z,5.58
2022-12-06T22:16:05.724Z,5.60
2022-12-06T22:18:32.550Z,5.64
2022-12-06T22:21:13.299Z,5.58
2022-12-06T22:23:39.730Z,5.56
2022-12-06T22:26:08.611Z,5.54
2022-12-06T22:28:35.420Z,5.52
2022-12-06T22:31:09.800Z,5.57
2022-12-06T22:33:36.361Z,5.56
2022-12-06T22:36:03.418Z,5.52
2022-12-06T22:38:29.926Z,5.52
2022-12-06T22:40:57.675Z,5.53
2022-12-06T22:43:24.862Z,5.45
2022-12-06T22:45:51.822Z,5.47
2022-12-06T22:48:18.565Z,5.46
2022-12-06T22:50:45.032Z,5.42
2022-12-06T22:53:11.641Z,5.43
2022-12-06T22:55:38.096Z,5.43
2022-12-06T22:58:04.599Z,5.42
2022-12-06T23:00:31.047Z,5.46
2022-12-06T23:02:58.635Z,5.43
2022-12-06T23:05:25.106Z,5.32
2022-12-06T23:07:51.679Z,5.31
2022-12-06T23:10:18.325Z,5.35
2022-12-06T23:12:44.808Z,5.31
2022-12-06T23:15:11.411Z,5.28
2022-12-06T23:17:39.182Z,5.30
2022-12-06T23:20:07.355Z,5.31
2022-12-06T23:22:33.867Z,5.28
2022-12-06T23:25:00.318Z,5.34
2022-12-06T23:27:26.778Z,5.36
2022-12-06T23:29:53.299Z,5.36
2022-12-06T23:32:19.762Z,5.30
2022-12-06T23:34:46.225Z,5.30
2022-12-06T23:37:12.701Z,5.35
2022-12-06T23:39:39.193Z,5.24
2022-12-06T23:42:05.677Z,5.33
2022-12-06T23:44:32.210Z,5.34
2022-12-06T23:46:58.745Z,5.31
2022-12-06T23:49:25.178Z,5.26
2022-12-06T23:51:51.575Z,5.27
2022-12-06T23:54:18.898Z,5.33
2022-12-06T23:56:45.455Z,5.32
2022-12-06T23:59:14.699Z,5.27
